Time;durP1;ratioP1;P1;durP2;ratioP2;P2;SDS_P1;SDS_P2;PMS_P1;PMS_P2;Temp;Humidity;BMP_temperature;BMP_pressure;BME280_temperature;BME280_humidity;BME280_pressure;Samples;Min_cycle;Max_cycle;Signal;HPM_P1;HPM_P2
2024/02/03 00:00:38;;;;;;;1.70;1.20;;;;;;;18.27;49.80;97799.83;105588;1259;61269;-47
2024/02/03 00:03:05;;;;;;;1.20;1.00;;;;;;;18.26;49.83;97801.27;105605;1257;61256;-47
2024/02/03 00:05:31;;;;;;;1.70;1.10;;;;;;;18.26;49.81;97795.69;105709;1254;74586;-47
2024/02/03 00:07:58;;;;;;;1.60;1.10;;;;;;;18.26;49.76;97800.19;105630;1259;64895;-48
2024/02/03 00:10:25;;;;;;;1.50;0.80;;;;;;;18.27;49.74;97807.25;105616;1257;72585;-47
2024/02/03 00:12:51;;;;;;;1.30;1.00;;;;;;;18.26;49.70;97814.50;105599;1259;61232;-47
2024/02/03 00:15:19;;;;;;;1.50;1.00;;;;;;;18.26;49.76;97814.11;105643;1256;61257;-47
2024/02/03 00:17:45;;;;;;;2.20;1.10;;;;;;;18.26;49.79;97817.21;105606;1257;74598;-47
2024/02/03 00:20:13;;;;;;;1.20;0.90;;;;;;;18.26;49.72;97813.48;105478;1259;66245;-47
2024/02/03 00:22:45;;;;;;;1.60;1.00;;;;;;;18.26;49.71;97797.98;105319;1256;73031;-47
2024/02/03 00:25:12;;;;;;;0.90;0.80;;;;;;;18.25;49.73;97779.40;105600;1259;61231;-47
2024/02/03 00:27:39;;;;;;;1.30;1.00;;;;;;;18.26;49.72;97762.37;105826;1254;61362;-47
2024/02/03 00:30:07;;;;;;;1.40;0.90;;;;;;;18.25;49.74;97746.88;105551;1257;74579;-47
2024/02/03 00:32:34;;;;;;;1.50;1.10;;;;;;;18.25;49.70;97743.46;106006;1258;65108;-48
2024/02/03 00:35:00;;;;;;;2.80;1.20;;;;;;;18.26;49.71;97742.15;105629;1259;72563;-46
2024/02/03 00:37:27;;;;;;;1.30;0.90;;;;;;;18.25;49.71;97732.85;106091;1258;61227;-46
2024/02/03 00:39:54;;;;;;;1.60;1.00;;;;;;;18.25;49.73;97718.67;105561;1259;61529;-47
2024/02/03 00:42:20;;;;;;;1.30;0.90;;;;;;;18.26;49.73;97702.19;105401;1258;74471;-47
2024/02/03 00:44:47;;;;;;;1.60;1.00;;;;;;;18.25;49.67;97699.69;105584;1258;65738;-47
2024/02/03 00:47:14;;;;;;;1.00;0.80;;;;;;;18.25;49.72;97695.13;105432;1257;72587;-47
2024/02/03 00:49:42;;;;;;;1.60;1.00;;;;;;;18.25;49.68;97686.75;105490;1259;61228;-47
2024/02/03 00:52:10;;;;;;;1.00;0.90;;;;;;;18.25;49.72;97673.60;105463;1259;61219;-48
2024/02/03 00:54:36;;;;;;;1.00;0.90;;;;;;;18.25;49.68;97663.45;105415;1255;74563;-48
2024/02/03 00:57:04;;;;;;;1.20;0.80;;;;;;;18.25;49.72;97658.50;105477;1259;65263;-47
2024/02/03 00:59:31;;;;;;;0.90;0.70;;;;;;;18.25;49.64;97652.91;105563;1254;72563;-47
2024/02/03 01:01:57;;;;;;;1.90;0.90;;;;;;;18.24;49.67;97649.02;105660;1259;61315;-47
2024/02/03 01:04:24;;;;;;;1.40;1.00;;;;;;;18.24;49.64;97654.44;105603;1257;61243;-46
2024/02/03 01:06:54;;;;;;;1.20;1.10;;;;;;;18.24;49.68;97656.99;105512;1257;74374;-47
2024/02/03 01:09:21;;;;;;;1.40;1.10;;;;;;;18.24;49.61;97652.02;105541;1259;65565;-47
2024/02/03 01:11:47;;;;;;;1.50;1.00;;;;;;;18.24;49.67;97646.38;105463;1257;72601;-48
2024/02/03 01:14:14;;;;;;;1.60;1.00;;;;;;;18.24;49.65;97645.37;105557;1258;61265;-48
2024/02/03 01:16:43;;;;;;;1.30;1.00;;;;;;;18.24;49.69;97638.63;105415;1255;61429;-49
2024/02/03 01:19:10;;;;;;;2.60;1.10;;;;;;;18.23;49.69;97629.87;105436;1255;74404;-47
2024/02/03 01:21:37;;;;;;;1.20;1.00;;;;;;;18.24;49.74;97629.80;105605;1259;66757;-47
2024/02/03 01:24:04;;;;;;;1.40;1.10;;;;;;;18.24;49.71;97625.85;105639;1255;72492;-46
2024/02/03 01:26:31;;;;;;;1.30;1.00;;;;;;;18.24;49.68;97620.74;105420;1259;61244;-47
2024/02/03 01:28:58;;;;;;;1.10;0.80;;;;;;;18.24;49.74;97622.05;105552;1257;61251;-47
2024/02/03 01:31:24;;;;;;;1.70;1.20;;;;;;;18.24;49.69;97615.32;105509;1258;74758;-47
2024/02/03 01:33:51;;;;;;;1.50;1.00;;;;;;;18.24;49.65;97609.35;105434;1259;66027;-48
2024/02/03 01:36:18;;;;;;;1.40;1.10;;;;;;;18.23;49.67;97605.32;105464;1257;72756;-46
2024/02/03 01:38:49;;;;;;;1.60;1.20;;;;;;;18.23;49.62;97596.17;105669;1254;63833;-47
2024/02/03 01:41:16;;;;;;;1.50;1.10;;;;;;;18.23;49.64;97586.80;105580;1257;61363;-47
2024/02/03 01:43:44;;;;;;;1.80;1.10;;;;;;;18.23;49.68;97577.11;105690;1259;74392;-47
2024/02/03 01:46:11;;;;;;;1.70;1.20;;;;;;;18.23;49.64;97579.59;105624;1259;65949;-47
2024/02/03 01:48:38;;;;;;;1.00;0.90;;;;;;;18.23;49.71;97570.85;105716;1257;71424;-47
2024/02/03 01:51:06;;;;;;;1.20;0.90;;;;;;;18.23;49.65;97567.67;105618;1259;61180;-47
2024/02/03 01:53:33;;;;;;;0.90;0.80;;;;;;;18.22;49.66;97564.73;105697;1254;61253;-47
2024/02/03 01:55:59;;;;;;;1.40;1.00;;;;;;;18.23;49.65;97565.36;105540;1258;75130;-46
2024/02/03 01:58:26;;;;;;;1.10;0.90;;;;;;;18.23;49.67;97561.48;105438;1259;66186;-47
2024/02/03 02:00:53;;;;;;;2.20;1.00;;;;;;;18.23;49.66;97551.64;105557;1257;72283;-47
2024/02/03 02:03:20;;;;;;;1.00;0.90;;;;;;;18.22;49.66;97545.48;105610;1262;61245;-48
2024/02/03 02:05:47;;;;;;;1.40;0.90;;;;;;;18.22;49.65;97549.91;105623;1257;61240;-47
2024/02/03 02:08:14;;;;;;;1.20;0.80;;;;;;;18.23;49.65;97550.17;105615;1257;75157;-47
2024/02/03 02:10:41;;;;;;;1.60;1.20;;;;;;;18.22;49.63;97546.10;105611;1259;66202;-47
2024/02/03 02:13:07;;;;;;;1.60;1.00;;;;;;;18.22;49.59;97541.70;105626;1257;72974;-47
2024/02/03 02:15:34;;;;;;;2.10;1.10;;;;;;;18.21;49.60;97531.37;105396;1259;61260;-47
2024/02/03 02:18:01;;;;;;;1.30;1.00;;;;;;;18.21;49.63;97537.02;105463;1256;61340;-48
2024/02/03 02:20:28;;;;;;;1.40;0.90;;;;;;;18.21;49.69;97529.52;105397;1257;74463;-47
2024/02/03 02:22:55;;;;;;;1.20;0.90;;;;;;;18.21;49.64;97525.02;105595;1259;63927;-48
2024/02/03 02:25:21;;;;;;;2.70;0.90;;;;;;;18.21;49.59;97518.36;105416;1257;72625;-47
2024/02/03 02:27:52;;;;;;;1.60;1.20;;;;;;;18.21;49.58;97519.61;105562;1259;61236;-47
2024/02/03 02:30:20;;;;;;;1.30;0.90;;;;;;;18.21;49.63;97513.48;105705;1254;62906;-46
2024/02/03 02:32:47;;;;;;;1.50;1.10;;;;;;;18.20;49.66;97504.80;105676;1259;73382;-47
2024/02/03 02:35:15;;;;;;;1.40;1.20;;;;;;;18.21;49.61;97506.59;105418;1262;65719;-47
2024/02/03 02:37:41;;;;;;;1.30;1.10;;;;;;;18.21;49.61;97497.52;105691;1257;72326;-47
2024/02/03 02:40:09;;;;;;;1.20;0.90;;;;;;;18.21;49.65;97493.05;105462;1259;61327;-47
2024/02/03 02:42:35;;;;;;;1.60;1.20;;;;;;;18.21;49.62;97489.77;105951;1255;61169;-47
2024/02/03 02:45:02;;;;;;;2.10;1.30;;;;;;;18.20;49.61;97492.16;105553;1259;74484;-47
2024/02/03 02:47:29;;;;;;;1.60;1.00;;;;;;;18.20;49.68;97483.50;105982;1256;66019;-45
2024/02/03 02:49:56;;;;;;;3.20;1.30;;;;;;;18.20;49.56;97479.70;105543;1254;72503;-45
2024/02/03 02:52:23;;;;;;;1.60;1.10;;;;;;;18.21;49.56;97475.93;106067;1259;61247;-46
2024/02/03 02:54:50;;;;;;;1.70;1.00;;;;;;;18.21;49.60;97471.89;105635;1255;61298;-49
2024/02/03 02:57:16;;;;;;;1.10;0.90;;;;;;;18.21;49.62;97469.58;105605;1259;74525;-48
2024/02/03 02:59:43;;;;;;;1.30;1.00;;;;;;;18.21;49.59;97471.20;105684;1260;65484;-47
2024/02/03 03:02:09;;;;;;;4.10;1.00;;;;;;;18.21;49.66;97460.27;105556;1256;73035;-46
2024/02/03 03:04:36;;;;;;;1.80;1.00;;;;;;;18.21;49.59;97451.44;105591;1258;61247;-47
2024/02/03 03:07:03;;;;;;;1.20;0.80;;;;;;;18.20;49.61;97446.86;105473;1254;61326;-47
2024/02/03 03:09:30;;;;;;;1.00;0.90;;;;;;;18.21;49.58;97450.36;105714;1258;74540;-47
2024/02/03 03:11:56;;;;;;;1.10;0.80;;;;;;;18.21;49.56;97448.18;105631;1259;61161;-47
2024/02/03 03:14:23;;;;;;;1.20;0.90;;;;;;;18.20;49.63;97444.08;105645;1257;61253;-47
2024/02/03 03:16:49;;;;;;;1.10;0.90;;;;;;;18.21;49.58;97448.58;105583;1259;61337;-47
2024/02/03 03:19:16;;;;;;;2.70;1.10;;;;;;;18.20;49.60;97444.85;105565;1254;61257;-47
2024/02/03 03:21:43;;;;;;;3.90;1.10;;;;;;;18.20;49.62;97444.86;105646;1257;74611;-46
2024/02/03 03:24:10;;;;;;;1.20;1.00;;;;;;;18.20;49.63;97442.37;105583;1259;66070;-47
2024/02/03 03:26:43;;;;;;;1.60;1.00;;;;;;;18.20;49.63;97435.56;105435;1257;72336;-47
2024/02/03 03:29:11;;;;;;;1.70;1.10;;;;;;;18.19;49.63;97437.80;105651;1254;61259;-46
2024/02/03 03:31:42;;;;;;;1.50;1.00;;;;;;;18.20;49.58;97432.37;105635;1258;61335;-47
2024/02/03 03:34:08;;;;;;;1.30;0.90;;;;;;;18.19;49.57;97430.66;105601;1255;74935;-47
2024/02/03 03:36:35;;;;;;;1.20;1.00;;;;;;;18.19;49.65;97430.71;105684;1258;65813;-48
2024/02/03 03:39:02;;;;;;;1.60;1.10;;;;;;;18.18;49.61;97428.63;105631;1255;72707;-46
2024/02/03 03:41:29;;;;;;;2.80;1.00;;;;;;;18.19;49.62;97427.16;105702;1259;61257;-46
2024/02/03 03:43:55;;;;;;;1.70;1.00;;;;;;;18.18;49.64;97420.18;105477;1257;61298;-47
2024/02/03 03:46:22;;;;;;;1.10;0.90;;;;;;;18.19;49.55;97421.13;105460;1254;74430;-47
2024/02/03 03:48:49;;;;;;;1.10;0.90;;;;;;;18.18;49.58;97422.89;105492;1258;65084;-47
2024/02/03 03:51:15;;;;;;;1.30;1.00;;;;;;;18.18;49.59;97425.36;105475;1257;72601;-47
2024/02/03 03:53:42;;;;;;;1.50;1.10;;;;;;;18.18;49.61;97424.59;105412;1260;61242;-47
2024/02/03 03:56:10;;;;;;;1.40;1.00;;;;;;;18.18;49.55;97422.27;105546;1254;61281;-47
2024/02/03 03:58:37;;;;;;;1.00;0.90;;;;;;;18.19;49.58;97413.99;105663;1257;74384;-47
2024/02/03 04:01:03;;;;;;;1.60;0.90;;;;;;;18.18;49.56;97406.94;105646;1259;65558;-47
2024/02/03 04:03:31;;;;;;;1.40;0.90;;;;;;;18.18;49.51;97408.33;105422;1257;72598;-48
2024/02/03 04:05:57;;;;;;;1.10;1.00;;;;;;;18.18;49.57;97412.66;105486;1260;61238;-47
2024/02/03 04:08:24;;;;;;;1.30;1.00;;;;;;;18.18;49.51;97402.29;105552;1254;61205;-46
2024/02/03 04:10:51;;;;;;;1.10;0.90;;;;;;;18.18;49.50;97396.31;105582;1255;74398;-47
2024/02/03 04:13:18;;;;;;;1.40;1.00;;;;;;;18.17;49.57;97380.59;105682;1259;66074;-46
2024/02/03 04:15:45;;;;;;;1.50;0.90;;;;;;;18.18;49.55;97383.48;105694;1260;72552;-47
2024/02/03 04:18:12;;;;;;;1.00;0.80;;;;;;;18.17;49.51;97376.95;105602;1259;61234;-47
2024/02/03 04:20:39;;;;;;;1.60;0.90;;;;;;;18.17;49.58;97379.42;105579;1255;61336;-46
2024/02/03 04:23:05;;;;;;;1.20;0.90;;;;;;;18.17;49.57;97375.16;105670;1259;74552;-47
2024/02/03 04:25:32;;;;;;;0.80;0.80;;;;;;;18.17;49.56;97369.27;105499;1260;66069;-47
2024/02/03 04:27:58;;;;;;;1.00;0.90;;;;;;;18.17;49.62;97367.95;105690;1257;72378;-48
2024/02/03 04:30:25;;;;;;;1.20;0.90;;;;;;;18.16;49.55;97357.56;105269;1259;61345;-45
2024/02/03 04:32:52;;;;;;;2.00;1.00;;;;;;;18.17;49.56;97359.36;105517;1254;61274;-47
2024/02/03 04:35:20;;;;;;;1.00;0.90;;;;;;;18.17;49.56;97359.82;105513;1259;74518;-48
2024/02/03 04:37:46;;;;;;;1.40;0.90;;;;;;;18.17;49.57;97359.66;105596;1259;65436;-48
2024/02/03 04:40:13;;;;;;;1.60;1.00;;;;;;;18.17;49.55;97354.09;105503;1260;62751;-48
2024/02/03 04:42:39;;;;;;;1.50;1.00;;;;;;;18.17;49.50;97354.41;105707;1260;61235;-47
2024/02/03 04:45:07;;;;;;;1.30;0.80;;;;;;;18.17;49.53;97337.67;105524;1259;63117;-47
2024/02/03 04:47:34;;;;;;;1.10;1.00;;;;;;;18.17;49.49;97328.77;105686;1257;74696;-48
2024/02/03 04:50:01;;;;;;;1.10;0.70;;;;;;;18.16;49.48;97317.85;105527;1260;66491;-48
2024/02/03 04:52:28;;;;;;;1.40;1.00;;;;;;;18.17;49.51;97316.31;106018;1257;72443;-47
2024/02/03 04:54:55;;;;;;;1.10;0.90;;;;;;;18.17;49.48;97315.84;105647;1259;63137;-47
2024/02/03 04:57:22;;;;;;;1.30;1.00;;;;;;;18.17;49.48;97307.48;105340;1258;61244;-48
2024/02/03 04:59:48;;;;;;;1.40;1.00;;;;;;;18.16;49.53;97305.54;105685;1254;74440;-47
2024/02/03 05:02:15;;;;;;;0.80;0.80;;;;;;;18.17;49.58;97305.15;105599;1260;65418;-48
2024/02/03 05:04:42;;;;;;;1.20;0.90;;;;;;;18.16;49.47;97301.04;105667;1257;72946;-48
2024/02/03 05:07:09;;;;;;;1.00;0.80;;;;;;;18.16;49.47;97292.91;105497;1259;61253;-48
2024/02/03 05:09:35;;;;;;;1.10;0.90;;;;;;;18.17;49.56;97290.67;105439;1254;61321;-48
2024/02/03 05:12:03;;;;;;;1.40;0.90;;;;;;;18.16;49.54;97284.48;105507;1259;74359;-48
2024/02/03 05:14:29;;;;;;;1.60;1.10;;;;;;;18.16;49.49;97282.47;105725;1258;66016;-48
2024/02/03 05:16:56;;;;;;;1.50;1.00;;;;;;;18.16;49.47;97283.39;105594;1258;73193;-47
2024/02/03 05:19:25;;;;;;;1.20;0.90;;;;;;;18.16;49.49;97282.30;105666;1259;61247;-47
2024/02/03 05:21:52;;;;;;;1.60;1.00;;;;;;;18.16;49.47;97282.77;105636;1258;61331;-46
2024/02/03 05:24:19;;;;;;;1.10;0.90;;;;;;;18.16;49.55;97280.76;105458;1258;74458;-48
2024/02/03 05:26:45;;;;;;;1.10;0.90;;;;;;;18.16;49.44;97274.64;105381;1259;65836;-48
2024/02/03 05:29:12;;;;;;;1.50;0.90;;;;;;;18.16;49.48;97278.60;105417;1259;72635;-47
2024/02/03 05:31:38;;;;;;;0.80;0.80;;;;;;;18.16;49.51;97282.31;105551;1260;61324;-47
2024/02/03 05:34:05;;;;;;;1.30;1.00;;;;;;;18.15;49.51;97277.80;105597;1260;61332;-48
2024/02/03 05:36:31;;;;;;;0.90;0.70;;;;;;;18.15;49.46;97281.91;105566;1255;74596;-47
2024/02/03 05:38:58;;;;;;;1.20;1.00;;;;;;;18.15;49.41;97274.94;105539;1259;65548;-47
2024/02/03 05:41:25;;;;;;;1.10;0.80;;;;;;;18.15;49.41;97280.42;105594;1258;72594;-47
2024/02/03 05:43:51;;;;;;;1.30;1.00;;;;;;;18.15;49.50;97275.47;105579;1260;61228;-47
2024/02/03 05:46:18;;;;;;;1.40;0.90;;;;;;;18.14;49.48;97275.84;105570;1260;61263;-47
2024/02/03 05:48:44;;;;;;;1.00;0.80;;;;;;;18.15;49.39;97282.59;105678;1260;74745;-46
2024/02/03 05:51:12;;;;;;;1.40;0.90;;;;;;;18.14;49.40;97285.12;105562;1260;66234;-47
2024/02/03 05:53:39;;;;;;;1.10;1.00;;;;;;;18.14;49.43;97280.71;105425;1260;72366;-48
2024/02/03 05:56:07;;;;;;;1.10;1.00;;;;;;;18.14;49.47;97286.67;105601;1260;61224;-48
2024/02/03 05:58:34;;;;;;;1.10;1.00;;;;;;;18.14;49.50;97287.45;105711;1259;61253;-48
2024/02/03 06:01:01;;;;;;;1.00;0.90;;;;;;;18.14;49.41;97280.02;105594;1264;74569;-47
2024/02/03 06:03:28;;;;;;;1.20;0.80;;;;;;;18.14;49.52;97274.60;105313;1260;65523;-48
2024/02/03 06:05:55;;;;;;;1.10;1.00;;;;;;;18.14;49.52;97269.55;105579;1255;72639;-49
2024/02/03 06:08:41;;;;;;;2.00;1.20;;;;;;;18.14;49.46;97270.10;105636;1260;61346;-47
2024/02/03 06:11:08;;;;;;;0.90;0.70;;;;;;;18.14;49.46;97265.14;105591;1259;61289;-47
2024/02/03 06:13:35;;;;;;;1.40;1.00;;;;;;;18.14;49.49;97259.33;105649;1259;74602;-46
2024/02/03 06:16:02;;;;;;;1.00;0.90;;;;;;;18.14;49.55;97253.14;105449;1260;65996;-47
2024/02/03 06:18:29;;;;;;;1.10;0.80;;;;;;;18.14;49.43;97244.92;105446;1260;72484;-48
2024/02/03 06:20:56;;;;;;;1.00;0.90;;;;;;;18.14;49.48;97240.58;105516;1259;61224;-48
2024/02/03 06:23:22;;;;;;;1.00;0.90;;;;;;;18.13;49.49;97242.84;105686;1260;61259;-48
2024/02/03 06:25:49;;;;;;;1.10;0.90;;;;;;;18.14;49.49;97248.71;105575;1260;74981;-47
2024/02/03 06:28:15;;;;;;;1.20;0.80;;;;;;;18.13;49.51;97246.47;105611;1260;61227;-47
2024/02/03 06:30:42;;;;;;;1.60;0.80;;;;;;;18.14;49.45;97241.67;105563;1254;73126;-47
2024/02/03 06:33:09;;;;;;;0.90;0.70;;;;;;;18.14;49.56;97234.24;105541;1260;61213;-47
2024/02/03 06:35:36;;;;;;;1.30;1.00;;;;;;;18.13;49.53;97231.45;105380;1256;61349;-47
2024/02/03 06:38:06;;;;;;;1.90;0.80;;;;;;;18.14;49.44;97231.38;105367;1259;74453;-47
2024/02/03 06:40:32;;;;;;;1.40;0.80;;;;;;;18.14;49.48;97230.83;105401;1259;66099;-48
2024/02/03 06:42:59;;;;;;;1.30;1.00;;;;;;;18.14;49.42;97231.45;105663;1254;73017;-47
2024/02/03 06:45:27;;;;;;;1.40;1.10;;;;;;;18.14;49.42;97234.16;105459;1260;61217;-46
2024/02/03 06:47:54;;;;;;;1.20;0.90;;;;;;;18.14;49.54;97232.61;105276;1260;63756;-47
2024/02/03 06:50:21;;;;;;;2.60;0.80;;;;;;;18.14;49.45;97236.48;105618;1260;75078;-47
2024/02/03 06:52:48;;;;;;;0.80;0.80;;;;;;;18.13;49.42;97231.14;105692;1260;66163;-48
2024/02/03 06:55:16;;;;;;;1.00;0.90;;;;;;;18.13;49.42;97235.79;105446;1260;72496;-47
2024/02/03 06:57:42;;;;;;;0.90;0.80;;;;;;;18.13;49.41;97231.77;105697;1260;61148;-48
2024/02/03 07:00:10;;;;;;;1.40;1.00;;;;;;;18.13;49.46;97237.41;105501;1259;61837;-47
2024/02/03 07:02:37;;;;;;;1.20;1.00;;;;;;;18.14;49.44;97241.28;105806;1259;74487;-47
2024/02/03 07:05:04;;;;;;;1.70;0.80;;;;;;;18.14;49.45;97237.95;105395;1260;65176;-47
2024/02/03 07:07:31;;;;;;;0.80;0.80;;;;;;;18.13;49.39;97235.80;105904;1259;72710;-47
2024/02/03 07:10:01;;;;;;;0.90;0.90;;;;;;;18.14;49.43;97230.67;105235;1260;61745;-46
2024/02/03 07:12:28;;;;;;;0.80;0.80;;;;;;;18.14;49.41;97231.77;106054;1259;61238;-47
2024/02/03 07:14:55;;;;;;;1.10;1.00;;;;;;;18.14;49.45;97227.97;105426;1255;74630;-47
2024/02/03 07:17:21;;;;;;;1.20;0.80;;;;;;;18.14;49.46;97220.92;105597;1260;65887;-46
2024/02/03 07:19:48;;;;;;;1.40;0.90;;;;;;;18.13;49.46;97220.23;105601;1260;72429;-48
2024/02/03 07:22:15;;;;;;;1.00;0.90;;;;;;;18.14;49.40;97223.41;105504;1268;61253;-47
2024/02/03 07:24:42;;;;;;;1.20;1.00;;;;;;;18.14;49.48;97223.71;105579;1255;61320;-47
2024/02/03 07:27:09;;;;;;;1.30;0.90;;;;;;;18.14;49.48;97221.30;105639;1260;74494;-47
2024/02/03 07:29:36;;;;;;;1.00;0.90;;;;;;;18.14;49.51;97224.11;105522;1260;65474;-47
2024/02/03 07:32:04;;;;;;;2.90;0.90;;;;;;;18.14;49.44;97221.23;105407;1254;72574;-47
2024/02/03 07:34:31;;;;;;;1.10;0.90;;;;;;;18.14;49.31;97217.37;105518;1259;61227;-48
2024/02/03 07:36:58;;;;;;;0.80;0.80;;;;;;;18.14;49.36;97216.98;105482;1259;61298;-46
2024/02/03 07:39:24;;;;;;;1.10;0.90;;;;;;;18.13;49.43;97206.52;105653;1259;74333;-47
2024/02/03 07:41:51;;;;;;;0.70;0.70;;;;;;;18.14;49.46;97202.48;105541;1260;66086;-48
2024/02/03 07:44:18;;;;;;;0.90;0.80;;;;;;;18.14;49.39;97198.70;105564;1254;72373;-47
2024/02/03 07:46:44;;;;;;;3.30;1.00;;;;;;;18.13;49.35;97202.89;105625;1259;61309;-47
2024/02/03 07:49:11;;;;;;;1.10;1.00;;;;;;;18.14;49.33;97208.08;105655;1259;61265;-47
2024/02/03 07:51:38;;;;;;;1.20;1.10;;;;;;;18.14;49.42;97212.25;105590;1254;74406;-47
2024/02/03 07:54:04;;;;;;;0.90;0.90;;;;;;;18.14;49.43;97200.32;105551;1260;65634;-47
2024/02/03 07:56:31;;;;;;;1.10;0.90;;;;;;;18.14;49.41;97200.25;105580;1260;72370;-44
2024/02/03 07:58:57;;;;;;;1.60;0.90;;;;;;;18.14;49.39;97198.31;105407;1260;63694;-49
2024/02/03 08:01:24;;;;;;;0.90;0.80;;;;;;;18.14;49.41;97196.77;105491;1260;61303;-48
2024/02/03 08:03:51;;;;;;;1.10;0.90;;;;;;;18.14;49.40;97194.75;105625;1258;74547;-47
2024/02/03 08:06:18;;;;;;;0.80;0.80;;;;;;;18.14;49.39;97192.13;105526;1258;66136;-49
2024/02/03 08:08:45;;;;;;;1.00;0.90;;;;;;;18.14;49.40;97188.40;105460;1254;72396;-47
2024/02/03 08:11:11;;;;;;;1.10;0.90;;;;;;;18.14;49.43;97190.10;105493;1258;61164;-47
2024/02/03 08:13:38;;;;;;;1.00;0.70;;;;;;;18.13;49.37;97187.00;105283;1260;61243;-48
2024/02/03 08:16:05;;;;;;;0.80;0.80;;;;;;;18.14;49.46;97189.56;105479;1254;73325;-47
2024/02/03 08:18:32;;;;;;;1.10;0.80;;;;;;;18.14;49.37;97193.75;105419;1261;66268;-48
2024/02/03 08:20:59;;;;;;;0.80;0.80;;;;;;;18.13;49.39;97194.60;105480;1260;72343;-47
2024/02/03 08:23:26;;;;;;;0.70;0.70;;;;;;;18.14;49.44;97199.17;105478;1259;61230;-48
2024/02/03 08:25:52;;;;;;;0.80;0.80;;;;;;;18.14;49.42;97198.77;105460;1260;61346;-49
2024/02/03 08:28:19;;;;;;;0.90;0.80;;;;;;;18.14;49.43;97201.20;105358;1261;74418;-44
2024/02/03 08:30:46;;;;;;;0.90;0.80;;;;;;;18.14;49.40;97207.92;105489;1254;67077;-46
2024/02/03 08:33:12;;;;;;;0.90;0.80;;;;;;;18.14;49.40;97210.01;105574;1259;72611;-47
2024/02/03 08:35:40;;;;;;;0.80;0.70;;;;;;;18.15;49.40;97212.73;105501;1267;61247;-49
2024/02/03 08:38:07;;;;;;;0.60;0.50;;;;;;;18.15;49.32;97210.56;105582;1254;61358;-48
2024/02/03 08:40:34;;;;;;;0.90;0.80;;;;;;;18.15;49.36;97209.48;105519;1259;74841;-46
2024/02/03 08:43:00;;;;;;;0.90;0.80;;;;;;;18.15;49.37;97211.34;105551;1258;66127;-47
2024/02/03 08:45:27;;;;;;;0.70;0.70;;;;;;;18.15;49.37;97205.30;105532;1259;72472;-47
2024/02/03 08:47:54;;;;;;;1.30;0.90;;;;;;;18.15;49.36;97205.85;105609;1255;61154;-47
2024/02/03 08:50:21;;;;;;;0.80;0.80;;;;;;;18.15;49.35;97204.47;105588;1254;61339;-47
2024/02/03 08:52:47;;;;;;;1.10;0.80;;;;;;;18.15;49.34;97198.03;105427;1260;74409;-48
2024/02/03 08:55:15;;;;;;;1.00;0.90;;;;;;;18.15;49.37;97204.06;105602;1260;65927;-46
2024/02/03 08:57:42;;;;;;;1.10;1.00;;;;;;;18.15;49.43;97208.59;105658;1254;73000;-46
2024/02/03 09:00:09;;;;;;;1.20;0.80;;;;;;;18.15;49.41;97206.16;105501;1267;61227;-46
2024/02/03 09:02:36;;;;;;;1.30;0.80;;;;;;;18.15;49.36;97210.75;105754;1259;61784;-47
2024/02/03 09:05:04;;;;;;;0.80;0.80;;;;;;;18.16;49.34;97213.77;105497;1259;74592;-47
2024/02/03 09:07:34;;;;;;;1.10;0.90;;;;;;;18.15;49.35;97217.27;106077;1260;65378;-46
2024/02/03 09:10:02;;;;;;;0.60;0.60;;;;;;;18.16;49.34;97216.33;105482;1254;72607;-47
2024/02/03 09:12:30;;;;;;;0.80;0.80;;;;;;;18.16;49.36;97213.77;106035;1259;61230;-48
2024/02/03 09:14:56;;;;;;;0.60;0.60;;;;;;;18.16;49.44;97215.63;105562;1254;61368;-47
2024/02/03 09:17:23;;;;;;;1.00;0.80;;;;;;;18.17;49.40;97212.71;105460;1254;74899;-48
2024/02/03 09:19:49;;;;;;;1.00;0.80;;;;;;;18.17;49.36;97215.03;105509;1260;66301;-46
2024/02/03 09:22:16;;;;;;;0.90;0.80;;;;;;;18.17;49.35;97217.27;105634;1254;73456;-48
2024/02/03 09:24:43;;;;;;;1.10;0.90;;;;;;;18.17;49.31;97222.23;105479;1261;61247;-48
2024/02/03 09:27:10;;;;;;;0.60;0.60;;;;;;;18.17;49.27;97211.08;106134;1254;61326;-47
2024/02/03 09:29:40;;;;;;;0.80;0.80;;;;;;;18.17;49.36;97211.94;105493;1254;74409;-47
2024/02/03 09:32:08;;;;;;;2.00;0.70;;;;;;;18.17;49.31;97211.23;105684;1259;65456;-46
2024/02/03 09:34:35;;;;;;;0.70;0.70;;;;;;;18.18;49.31;97206.84;105532;1254;72416;-46
2024/02/03 09:37:03;;;;;;;0.90;0.70;;;;;;;18.17;49.34;97210.31;105470;1260;61308;-48
2024/02/03 09:39:33;;;;;;;0.80;0.70;;;;;;;18.17;49.34;97212.10;105631;1254;61256;-46
2024/02/03 09:42:00;;;;;;;1.10;1.00;;;;;;;18.18;49.33;97206.60;105416;1259;74260;-48
2024/02/03 09:44:26;;;;;;;0.90;0.80;;;;;;;18.18;49.39;97208.15;105429;1260;67160;-48
2024/02/03 09:46:54;;;;;;;1.30;0.90;;;;;;;18.18;49.32;97202.35;105569;1254;73140;-47
2024/02/03 09:49:20;;;;;;;1.10;0.70;;;;;;;18.18;49.31;97204.30;105605;1260;61237;-46
2024/02/03 09:51:47;;;;;;;0.80;0.80;;;;;;;18.18;49.28;97203.05;105424;1260;61234;-47
2024/02/03 09:54:15;;;;;;;0.80;0.70;;;;;;;18.18;49.36;97200.27;105530;1255;75126;-47
2024/02/03 09:56:42;;;;;;;0.80;0.80;;;;;;;18.19;49.33;97191.36;105477;1259;66139;-48
2024/02/03 09:59:09;;;;;;;1.10;1.00;;;;;;;18.18;49.34;97191.75;105388;1260;73728;-48
2024/02/03 10:01:36;;;;;;;1.20;0.90;;;;;;;18.19;49.34;97189.20;105611;1258;61167;-47
2024/02/03 10:04:03;;;;;;;0.80;0.60;;;;;;;18.20;49.30;97188.98;105595;1254;61264;-47
2024/02/03 10:06:30;;;;;;;1.00;0.90;;;;;;;18.20;49.34;97189.37;105584;1254;75165;-46
2024/02/03 10:08:57;;;;;;;1.00;0.80;;;;;;;18.20;49.28;97192.64;105434;1255;65179;-48
2024/02/03 10:11:23;;;;;;;0.70;0.70;;;;;;;18.20;49.33;97193.32;105522;1258;72403;-49
2024/02/03 10:14:03;;;;;;;1.40;0.80;;;;;;;18.20;49.32;97195.96;105626;1260;61234;-47
2024/02/03 10:16:29;;;;;;;0.80;0.70;;;;;;;18.20;49.29;97196.05;105513;1260;61243;-46
2024/02/03 10:18:56;;;;;;;0.70;0.60;;;;;;;18.21;49.25;97191.72;105462;1254;61256;-47
2024/02/03 10:21:26;;;;;;;0.80;0.70;;;;;;;18.21;49.22;97190.70;105565;1254;65864;-47
2024/02/03 10:23:53;;;;;;;0.90;0.70;;;;;;;18.20;49.30;97185.52;105581;1254;73172;-48
2024/02/03 10:26:20;;;;;;;0.80;0.80;;;;;;;18.22;49.30;97189.26;105523;1259;61237;-48
2024/02/03 10:28:46;;;;;;;4.90;1.00;;;;;;;18.22;49.34;97189.19;105469;1254;61368;-48
2024/02/03 10:31:13;;;;;;;1.50;0.70;;;;;;;18.22;49.24;97185.32;105479;1259;76676;-46
2024/02/03 10:33:40;;;;;;;0.80;0.70;;;;;;;18.22;49.25;97187.04;105628;1259;66570;-47
2024/02/03 10:36:07;;;;;;;0.70;0.70;;;;;;;18.23;49.19;97190.30;105525;1255;72633;-45
2024/02/03 10:38:34;;;;;;;0.90;0.80;;;;;;;18.24;49.24;97188.91;105474;1261;61157;-46
2024/02/03 10:41:02;;;;;;;0.70;0.70;;;;;;;18.25;49.25;97187.61;105336;1254;61313;-46
2024/02/03 10:43:33;;;;;;;0.70;0.60;;;;;;;18.24;49.17;97180.95;105519;1255;73876;-46
2024/02/03 10:46:05;;;;;;;1.00;0.60;;;;;;;18.25;49.29;97185.84;105495;1259;176909;-47
2024/02/03 10:48:42;;;;;;;0.70;0.60;;;;;;;18.25;49.22;97187.93;105687;1254;72559;-46
2024/02/03 10:51:16;;;;;;;0.70;0.70;;;;;;;18.26;49.29;97187.78;105585;1259;61241;-47
2024/02/03 10:53:54;;;;;;;0.70;0.70;;;;;;;18.27;49.25;97186.56;105619;1254;61725;-47
2024/02/03 10:56:23;;;;;;;1.00;0.80;;;;;;;18.27;49.22;97182.48;105468;1258;74119;-47
2024/02/03 10:58:49;;;;;;;0.90;0.80;;;;;;;18.28;49.20;97176.58;105667;1260;66706;-45
2024/02/03 11:01:20;;;;;;;0.80;0.70;;;;;;;18.28;49.20;97173.35;105466;1260;73388;-48
2024/02/03 11:03:48;;;;;;;0.90;0.80;;;;;;;18.29;49.19;97170.83;105614;1262;61320;-48
2024/02/03 11:06:28;;;;;;;0.80;0.80;;;;;;;18.29;49.22;97164.55;105572;1260;61233;-46
2024/02/03 11:09:12;;;;;;;0.70;0.70;;;;;;;18.30;49.16;97162.54;105541;1260;74909;-46
2024/02/03 11:11:52;;;;;;;0.60;0.60;;;;;;;18.30;49.15;97164.17;105508;1254;67091;-48
2024/02/03 11:14:20;;;;;;;0.70;0.70;;;;;;;18.31;49.12;97165.34;105494;1254;73669;-47
2024/02/03 11:17:03;;;;;;;0.70;0.70;;;;;;;18.31;49.22;97168.13;105478;1259;61266;-47
2024/02/03 11:19:31;;;;;;;0.80;0.70;;;;;;;18.31;49.14;97162.88;105496;1254;61259;-47
2024/02/03 11:21:59;;;;;;;1.10;0.80;;;;;;;18.31;49.18;97161.72;105555;1254;72384;-45
2024/02/03 11:24:26;;;;;;;0.80;0.70;;;;;;;18.32;49.07;97159.64;105527;1260;67571;-47